Terminal Aerodrome Forecast
Issued by NWS

Home | Current Version | Previous Version | Text Only | Print | Product List | Glossary On
Versions: 1 2 3 4 5 6 7 8 9 10 11 12 13 14 15 16 17 18 19 20
915
FTUS43 KLSX 150439 AAA
TAFUIN
TAF AMD
KUIN 150439Z 1505/1524 18011G17KT 1 1/2SM -SN OVC012
     FM150900 25011KT 4SM -SN OVC010
     FM151100 29014G21KT P6SM OVC025
     FM152200 30017G24KT P6SM BKN030=

USA.gov is the U.S. government's official web portal to all federal, state and local government web resources and services.